Time;durP1;ratioP1;P1;durP2;ratioP2;P2;SDS_P1;SDS_P2;PMS_P1;PMS_P2;Temp;Humidity;BMP_temperature;BMP_pressure;BME280_temperature;BME280_humidity;BME280_pressure;Samples;Min_cycle;Max_cycle;Signal;HPM_P1;HPM_P2
2022/04/02 00:00:44;;;;;;;7.00;4.20;;;2.00;99.90;;;;;;5019092;28;20910;-48
2022/04/02 00:03:10;;;;;;;6.30;3.30;;;2.00;99.90;;;;;;4994373;28;20239;-49
2022/04/02 00:05:35;;;;;;;4.87;3.50;;;2.00;99.90;;;;;;5009383;28;20195;-48
2022/04/02 00:08:01;;;;;;;8.53;3.87;;;1.90;99.90;;;;;;5009990;28;20212;-49
2022/04/02 00:10:27;;;;;;;7.30;3.90;;;1.90;99.90;;;;;;5010135;28;20263;-48
2022/04/02 00:12:55;;;;;;;4.40;3.10;;;1.80;99.90;;;;;;5009630;28;21210;-49
2022/04/02 00:15:21;;;;;;;5.23;3.10;;;1.90;99.90;;;;;;5009739;28;20207;-49
2022/04/02 00:17:47;;;;;;;6.30;3.17;;;1.80;99.90;;;;;;5000261;28;20502;-49
2022/04/02 00:20:12;;;;;;;8.40;3.77;;;1.80;99.90;;;;;;4997140;28;20434;-49
2022/04/02 00:22:38;;;;;;;6.53;3.20;;;1.80;99.90;;;;;;5009711;28;20266;-49
2022/04/02 00:25:04;;;;;;;7.37;5.47;;;1.80;99.90;;;;;;5009723;28;20663;-48
2022/04/02 00:27:29;;;;;;;10.07;5.10;;;1.80;99.90;;;;;;5009771;28;20302;-49
2022/04/02 00:29:55;;;;;;;7.80;3.60;;;1.80;99.90;;;;;;5009546;28;20237;-49
2022/04/02 00:32:20;;;;;;;5.43;3.97;;;1.80;99.90;;;;;;5008994;28;20207;-49
2022/04/02 00:34:47;;;;;;;5.67;3.30;;;1.70;99.90;;;;;;5009056;28;20172;-49
2022/04/02 00:37:12;;;;;;;5.30;3.60;;;1.80;99.90;;;;;;5008671;28;20191;-49
2022/04/02 00:39:38;;;;;;;5.60;3.40;;;1.80;99.90;;;;;;5009117;28;20434;-49
2022/04/02 00:42:04;;;;;;;6.33;3.93;;;1.80;99.90;;;;;;5008893;28;20196;-49
2022/04/02 00:44:29;;;;;;;5.07;3.60;;;1.80;99.90;;;;;;5009382;28;20560;-48
2022/04/02 00:46:55;;;;;;;7.00;3.60;;;1.90;99.90;;;;;;5008486;28;20223;-49
2022/04/02 00:49:20;;;;;;;6.40;4.90;;;1.90;99.90;;;;;;5009355;28;20242;-49
2022/04/02 00:51:49;;;;;;;7.47;3.73;;;1.90;99.90;;;;;;4990986;28;20271;-48
2022/04/02 00:54:17;;;;;;;4.53;3.43;;;1.80;99.90;;;;;;5009229;28;20175;-49
2022/04/02 00:56:43;;;;;;;7.10;3.77;;;1.80;99.90;;;;;;5008762;28;20427;-50
2022/04/02 00:59:09;;;;;;;4.23;3.17;;;1.80;99.90;;;;;;5009124;28;20934;-50
2022/04/02 01:01:36;;;;;;;8.40;3.70;;;1.80;99.90;;;;;;5028497;28;20437;-49
2022/04/02 01:04:03;;;;;;;3.93;2.50;;;1.90;99.90;;;;;;5028758;28;20519;-49
2022/04/02 01:06:33;;;;;;;6.77;3.20;;;1.90;99.90;;;;;;5030947;28;20438;-49
2022/04/02 01:09:00;;;;;;;3.50;3.00;;;1.90;99.90;;;;;;5032402;28;20445;-48
2022/04/02 01:11:40;;;;;;;5.83;3.27;;;1.90;99.90;;;;;;5031589;28;20414;-49
2022/04/02 01:14:07;;;;;;;5.80;3.90;;;1.90;99.90;;;;;;5032351;28;20456;-50
2022/04/02 01:16:33;;;;;;;6.47;3.90;;;2.00;99.90;;;;;;5030000;28;20410;-49
2022/04/02 01:18:59;;;;;;;4.40;2.97;;;2.00;99.90;;;;;;5032150;28;20429;-49
2022/04/02 01:21:26;;;;;;;4.30;2.90;;;2.00;99.90;;;;;;5031557;28;20532;-48
2022/04/02 01:23:52;;;;;;;6.53;3.30;;;2.00;99.90;;;;;;5031672;28;20423;-49
2022/04/02 01:26:19;;;;;;;10.43;4.30;;;2.00;99.90;;;;;;5031782;28;20930;-49
2022/04/02 01:28:53;;;;;;;5.73;3.70;;;2.10;99.90;;;;;;5027171;28;20749;-49
2022/04/02 01:31:19;;;;;;;5.97;3.50;;;2.10;99.90;;;;;;5031538;28;20459;-48
2022/04/02 01:33:45;;;;;;;6.30;4.00;;;2.00;99.90;;;;;;5031775;28;21326;-49
2022/04/02 01:36:11;;;;;;;6.50;3.83;;;2.00;99.90;;;;;;5035692;28;20430;-48
2022/04/02 01:38:36;;;;;;;5.23;3.43;;;2.00;99.90;;;;;;5031486;28;20183;-48
2022/04/02 01:41:02;;;;;;;5.43;3.40;;;2.00;99.90;;;;;;5031330;28;20210;-49
2022/04/02 01:43:27;;;;;;;4.50;2.40;;;2.00;99.90;;;;;;5031568;28;20250;-49
2022/04/02 01:45:55;;;;;;;7.67;2.70;;;2.00;99.90;;;;;;5031084;28;20180;-49
2022/04/02 01:48:20;;;;;;;4.33;3.20;;;2.00;99.90;;;;;;5030258;28;20739;-49
2022/04/02 01:50:46;;;;;;;10.77;3.63;;;2.00;99.90;;;;;;5031296;28;20525;-49
2022/04/02 01:53:11;;;;;;;8.00;3.70;;;2.00;99.90;;;;;;5030999;28;20209;-49
2022/04/02 01:55:37;;;;;;;7.77;3.70;;;2.00;99.90;;;;;;5031200;28;20183;-49
2022/04/02 01:58:03;;;;;;;9.10;3.60;;;2.10;99.90;;;;;;5031021;28;20539;-50
2022/04/02 02:00:29;;;;;;;4.90;3.20;;;2.00;99.90;;;;;;5031081;28;20589;-48
2022/04/02 02:02:54;;;;;;;7.13;3.90;;;2.10;99.90;;;;;;5030222;28;20434;-49
2022/04/02 02:05:20;;;;;;;6.17;3.40;;;2.10;99.90;;;;;;5031378;28;20564;-49
2022/04/02 02:07:49;;;;;;;4.73;3.33;;;2.10;99.90;;;;;;5026656;28;20202;-49
2022/04/02 02:10:15;;;;;;;6.10;3.27;;;2.10;99.90;;;;;;5029536;28;20426;-49
2022/04/02 02:12:41;;;;;;;6.90;3.73;;;2.00;99.90;;;;;;5030840;28;20773;-50
2022/04/02 02:15:07;;;;;;;8.33;3.87;;;1.90;99.90;;;;;;5030793;28;20452;-49
2022/04/02 02:17:33;;;;;;;4.40;3.43;;;1.90;99.90;;;;;;5029866;28;20190;-49
2022/04/02 02:19:59;;;;;;;6.03;3.30;;;1.80;99.90;;;;;;5030625;28;20438;-49
2022/04/02 02:22:24;;;;;;;5.00;3.37;;;1.80;99.90;;;;;;5030530;28;20699;-49
2022/04/02 02:24:50;;;;;;;11.10;4.23;;;1.70;99.90;;;;;;5030869;28;21085;-48
2022/04/02 02:27:15;;;;;;;6.23;3.77;;;1.70;99.90;;;;;;5030600;28;20199;-48
2022/04/02 02:29:41;;;;;;;6.10;3.30;;;1.60;99.90;;;;;;5030504;28;20179;-49
2022/04/02 02:32:07;;;;;;;6.30;3.70;;;1.60;99.90;;;;;;5030060;28;20183;-49
2022/04/02 02:37:17;;;;;;;7.53;3.53;;;1.70;99.90;;;;;;5026820;28;20241;-49
2022/04/02 02:39:42;;;;;;;5.93;4.00;;;1.70;99.90;;;;;;5030181;28;20437;-48
2022/04/02 02:42:08;;;;;;;6.60;3.97;;;1.70;99.90;;;;;;5029871;28;20644;-48
2022/04/02 02:44:34;;;;;;;6.13;4.13;;;1.70;99.90;;;;;;5030185;28;20186;-48
2022/04/02 02:46:59;;;;;;;9.60;4.17;;;1.70;99.90;;;;;;5029991;28;20690;-49
2022/04/02 02:49:25;;;;;;;5.90;3.97;;;1.70;99.90;;;;;;5029631;28;20197;-49
2022/04/02 02:51:52;;;;;;;5.73;3.97;;;1.70;99.90;;;;;;5030255;28;20175;-49
2022/04/02 02:54:18;;;;;;;5.50;3.50;;;1.70;99.90;;;;;;5030169;28;20179;-49
2022/04/02 02:56:43;;;;;;;6.87;3.60;;;1.70;99.90;;;;;;5029869;28;20440;-48
2022/04/02 02:59:09;;;;;;;4.47;3.20;;;1.60;99.90;;;;;;5030194;28;20194;-48
2022/04/02 03:01:34;;;;;;;6.73;3.97;;;1.60;99.90;;;;;;5029492;28;20194;-49
2022/04/02 03:04:00;;;;;;;6.07;3.70;;;1.50;99.90;;;;;;5029860;28;20219;-49
2022/04/02 03:06:25;;;;;;;5.50;3.53;;;1.50;99.90;;;;;;5024456;28;20266;-49
2022/04/02 03:08:51;;;;;;;5.03;3.70;;;1.60;99.90;;;;;;5027192;28;20207;-49
2022/04/02 03:11:16;;;;;;;5.57;3.50;;;1.60;99.90;;;;;;5029460;28;20225;-49
2022/04/02 03:13:42;;;;;;;7.80;4.37;;;1.50;99.90;;;;;;5030039;28;20251;-56
2022/04/02 03:16:08;;;;;;;5.37;3.30;;;1.50;99.90;;;;;;5029422;28;20878;-49
2022/04/02 03:18:34;;;;;;;4.73;3.80;;;1.50;99.90;;;;;;5029181;28;20202;-48
2022/04/02 03:20:59;;;;;;;7.03;3.60;;;1.40;99.90;;;;;;5025477;28;20175;-49
2022/04/02 03:23:25;;;;;;;5.50;3.93;;;1.40;99.90;;;;;;5029407;28;20442;-49
2022/04/02 03:25:51;;;;;;;7.00;4.00;;;1.30;99.90;;;;;;5029640;28;20214;-49
2022/04/02 03:28:17;;;;;;;7.40;3.90;;;1.30;99.90;;;;;;5029538;28;20209;-49
2022/04/02 03:30:42;;;;;;;4.80;3.30;;;1.20;99.90;;;;;;5029290;28;20270;-49
2022/04/02 03:33:09;;;;;;;4.67;3.83;;;1.20;99.90;;;;;;5027891;28;20183;-49
2022/04/02 03:35:34;;;;;;;10.67;4.67;;;1.20;99.90;;;;;;5029435;28;20199;-49
2022/04/02 03:38:00;;;;;;;6.10;3.80;;;1.20;99.90;;;;;;5029444;28;20849;-49
2022/04/02 03:40:26;;;;;;;5.70;3.70;;;1.20;99.90;;;;;;5029780;28;20183;-50
2022/04/02 03:42:53;;;;;;;8.10;3.60;;;1.20;99.90;;;;;;5029285;28;20183;-49
2022/04/02 03:45:20;;;;;;;7.67;4.00;;;1.20;99.90;;;;;;5028870;28;20525;-49
2022/04/02 03:47:47;;;;;;;5.77;4.00;;;1.20;99.90;;;;;;5028634;28;20480;-49
2022/04/02 03:50:13;;;;;;;5.63;3.60;;;1.20;99.90;;;;;;5028882;28;20433;-48
2022/04/02 03:52:39;;;;;;;8.73;3.83;;;1.10;99.90;;;;;;5029213;28;20909;-49
2022/04/02 03:55:06;;;;;;;8.10;4.10;;;1.10;99.90;;;;;;5028692;28;20433;-49
2022/04/02 03:57:32;;;;;;;9.13;4.47;;;1.20;99.90;;;;;;5029058;28;20654;-49
2022/04/02 03:59:58;;;;;;;6.23;4.20;;;1.10;99.90;;;;;;5028396;28;20572;-49
2022/04/02 04:02:23;;;;;;;5.87;3.30;;;1.00;99.90;;;;;;5028820;28;20426;-49
2022/04/02 04:04:49;;;;;;;6.80;3.90;;;1.10;99.90;;;;;;5029253;28;20449;-49
2022/04/02 04:07:15;;;;;;;10.20;3.93;;;1.00;99.90;;;;;;5028895;28;20215;-50
2022/04/02 04:09:40;;;;;;;5.40;3.80;;;1.00;99.90;;;;;;5029293;28;20183;-48
2022/04/02 04:12:07;;;;;;;8.93;3.57;;;1.00;99.90;;;;;;5028787;28;20191;-49
2022/04/02 04:14:33;;;;;;;6.03;3.27;;;1.00;99.90;;;;;;5028982;28;20199;-49
2022/04/02 04:16:58;;;;;;;9.60;4.13;;;0.90;99.90;;;;;;5028531;28;20441;-49
2022/04/02 04:19:24;;;;;;;4.83;3.63;;;0.90;99.90;;;;;;5028366;28;20187;-49
2022/04/02 04:21:50;;;;;;;8.77;4.20;;;0.90;99.90;;;;;;5011156;28;20191;-49
2022/04/02 04:24:16;;;;;;;10.37;4.10;;;0.90;99.90;;;;;;5029051;28;20195;-48
2022/04/02 04:26:42;;;;;;;5.23;3.33;;;0.90;99.90;;;;;;5028673;28;20537;-48
2022/04/02 04:29:08;;;;;;;8.00;3.70;;;0.80;99.90;;;;;;5028720;28;20426;-49
2022/04/02 04:31:34;;;;;;;6.57;3.80;;;0.80;99.90;;;;;;5029410;28;20437;-49
2022/04/02 04:34:00;;;;;;;5.27;3.43;;;0.80;99.90;;;;;;5029011;28;21074;-49
2022/04/02 04:36:26;;;;;;;9.00;3.93;;;0.70;99.90;;;;;;5029117;28;21011;-49
2022/04/02 04:38:52;;;;;;;7.20;3.80;;;0.60;99.90;;;;;;5029012;28;20500;-48
2022/04/02 04:41:18;;;;;;;6.53;3.93;;;0.60;99.90;;;;;;5031516;28;20210;-49
2022/04/02 04:43:48;;;;;;;6.10;3.63;;;0.50;99.90;;;;;;5032128;28;20210;-49
2022/04/02 04:46:14;;;;;;;6.77;4.20;;;0.50;99.90;;;;;;5032362;28;20430;-49
2022/04/02 04:48:40;;;;;;;5.33;3.80;;;0.50;99.90;;;;;;5032118;28;20477;-49
2022/04/02 04:51:06;;;;;;;7.00;3.90;;;0.50;99.90;;;;;;5031958;28;20425;-49
2022/04/02 04:53:32;;;;;;;7.77;3.70;;;0.50;99.90;;;;;;5032636;28;20597;-49
2022/04/02 04:55:59;;;;;;;5.20;3.90;;;0.50;99.90;;;;;;5022232;28;20499;-49
2022/04/02 04:58:25;;;;;;;6.00;3.83;;;0.40;99.90;;;;;;5014477;28;20187;-49
2022/04/02 05:00:50;;;;;;;8.00;3.37;;;0.40;99.90;;;;;;5031888;28;20485;-49
2022/04/02 05:03:16;;;;;;;6.50;4.27;;;0.40;99.90;;;;;;5032482;28;20194;-49
2022/04/02 05:05:41;;;;;;;7.77;3.87;;;0.40;99.90;;;;;;5031337;28;20274;-49
2022/04/02 05:08:07;;;;;;;6.53;4.23;;;0.40;99.90;;;;;;5032280;28;20556;-49
2022/04/02 05:10:39;;;;;;;5.63;3.87;;;0.30;99.90;;;;;;5030344;28;20258;-48
2022/04/02 05:13:05;;;;;;;6.03;3.90;;;0.30;99.90;;;;;;5031791;28;20455;-49
2022/04/02 05:15:30;;;;;;;7.30;3.83;;;0.30;99.90;;;;;;5031760;28;20437;-49
2022/04/02 05:17:56;;;;;;;6.00;3.97;;;0.30;99.90;;;;;;5014230;28;20598;-49
2022/04/02 05:20:22;;;;;;;6.60;3.40;;;0.30;99.90;;;;;;5031345;28;20621;-49
2022/04/02 05:22:48;;;;;;;7.13;3.80;;;0.40;99.90;;;;;;5031219;28;20198;-50
2022/04/02 05:25:14;;;;;;;10.03;3.40;;;0.50;99.90;;;;;;5031822;28;20183;-49
2022/04/02 05:27:40;;;;;;;5.33;3.33;;;0.50;99.90;;;;;;5031405;28;20476;-49
2022/04/02 05:30:06;;;;;;;7.13;3.60;;;0.40;99.90;;;;;;5031356;28;20520;-49
2022/04/02 05:32:32;;;;;;;5.90;3.90;;;0.40;99.90;;;;;;5031874;28;20429;-49
2022/04/02 05:34:58;;;;;;;4.60;3.30;;;0.40;99.90;;;;;;5031396;28;20907;-49
2022/04/02 05:37:23;;;;;;;7.10;3.30;;;0.50;99.90;;;;;;5031868;28;20190;-49
2022/04/02 05:39:50;;;;;;;5.93;3.30;;;0.60;99.90;;;;;;5031681;28;20195;-49
2022/04/02 05:42:16;;;;;;;7.57;3.20;;;0.60;99.90;;;;;;5031570;28;20290;-49
2022/04/02 05:44:42;;;;;;;4.50;3.47;;;0.70;99.90;;;;;;5031370;28;20430;-50
2022/04/02 05:47:09;;;;;;;4.33;3.00;;;0.70;99.90;;;;;;5031261;28;20469;-49
2022/04/02 05:49:36;;;;;;;5.60;3.20;;;0.80;99.90;;;;;;5030438;28;20597;-49
2022/04/02 05:52:03;;;;;;;3.67;2.67;;;0.70;99.90;;;;;;5031329;28;20441;-49
2022/04/02 05:54:29;;;;;;;3.97;3.23;;;0.80;99.90;;;;;;5031457;28;20430;-49
2022/04/02 05:56:55;;;;;;;4.03;3.20;;;0.90;99.90;;;;;;5031140;28;20451;-49
2022/04/02 05:59:21;;;;;;;5.17;3.17;;;0.90;99.90;;;;;;5030603;28;20201;-49
2022/04/02 06:01:47;;;;;;;4.70;2.97;;;1.10;99.90;;;;;;5031389;28;20176;-49
2022/04/02 06:04:13;;;;;;;5.17;2.83;;;1.10;99.90;;;;;;5013107;28;20436;-50
2022/04/02 06:06:39;;;;;;;4.63;3.00;;;1.10;99.90;;;;;;5030837;28;20834;-50
2022/04/02 06:09:04;;;;;;;5.13;3.00;;;1.20;99.90;;;;;;5030954;28;20263;-49
2022/04/02 06:11:30;;;;;;;4.87;3.00;;;1.30;99.90;;;;;;5030857;28;20195;-49
2022/04/02 06:13:56;;;;;;;4.33;2.90;;;1.40;99.90;;;;;;5030564;28;20186;-48
2022/04/02 06:16:23;;;;;;;3.30;2.70;;;1.60;99.90;;;;;;5029704;28;20199;-49
2022/04/02 06:18:52;;;;;;;5.60;2.90;;;1.70;99.90;;;;;;5030620;28;20907;-49
2022/04/02 06:21:18;;;;;;;4.07;2.80;;;1.80;99.90;;;;;;5012893;28;20468;-49
2022/04/02 06:23:44;;;;;;;7.30;3.60;;;1.90;99.90;;;;;;5031046;28;20445;-50
2022/04/02 06:26:10;;;;;;;5.17;2.70;;;2.10;99.90;;;;;;5012639;28;20436;-49
2022/04/02 06:28:40;;;;;;;4.53;2.77;;;2.20;99.90;;;;;;5030948;28;21066;-49
2022/04/02 06:31:06;;;;;;;5.60;3.00;;;2.30;99.90;;;;;;5030542;28;20237;-49
2022/04/02 06:33:32;;;;;;;13.30;4.57;;;2.50;99.90;;;;;;5030628;28;20453;-49
2022/04/02 06:35:59;;;;;;;3.67;2.90;;;2.60;99.90;;;;;;5029747;28;20521;-49
2022/04/02 06:38:26;;;;;;;4.07;2.90;;;2.80;99.90;;;;;;5013005;28;20513;-55
2022/04/02 06:40:53;;;;;;;5.40;3.20;;;3.00;99.90;;;;;;5031464;28;20520;-49
2022/04/02 06:43:20;;;;;;;4.27;3.27;;;3.10;99.90;;;;;;5025824;28;20504;-49
2022/04/02 06:45:45;;;;;;;4.90;2.90;;;3.20;99.90;;;;;;5030270;28;20429;-49
2022/04/02 06:48:13;;;;;;;6.87;3.57;;;3.20;99.90;;;;;;5030549;28;20469;-50
2022/04/02 06:50:43;;;;;;;4.20;2.90;;;3.30;99.90;;;;;;5031082;28;20175;-50
2022/04/02 06:53:08;;;;;;;2.80;2.50;;;3.30;99.90;;;;;;5030401;28;20434;-49
2022/04/02 06:55:34;;;;;;;6.20;3.00;;;3.30;99.90;;;;;;5029715;28;20495;-49
2022/04/02 06:58:00;;;;;;;3.30;2.70;;;3.20;99.90;;;;;;5030246;28;20194;-49
2022/04/02 07:00:26;;;;;;;4.70;2.80;;;3.30;99.90;;;;;;5028606;28;20235;-51
2022/04/02 07:02:52;;;;;;;4.97;2.73;;;3.40;99.90;;;;;;5029415;28;20499;-49
2022/04/02 07:05:18;;;;;;;3.63;2.37;;;3.60;99.90;;;;;;5029754;28;20421;-49
2022/04/02 07:07:45;;;;;;;4.30;2.30;;;3.80;99.90;;;;;;5030139;28;20461;-49
2022/04/02 07:10:11;;;;;;;2.47;2.27;;;3.90;99.90;;;;;;5029961;28;20888;-49
2022/04/02 07:12:37;;;;;;;4.67;2.10;;;3.90;99.90;;;;;;5030150;28;20468;-50
2022/04/02 07:15:04;;;;;;;2.37;2.10;;;4.00;99.90;;;;;;5030055;28;20532;-49
2022/04/02 07:17:30;;;;;;;6.90;2.33;;;4.10;99.90;;;;;;5029711;28;20483;-48
2022/04/02 07:19:57;;;;;;;4.40;1.97;;;4.20;99.90;;;;;;5029421;28;20884;-49
2022/04/02 07:22:23;;;;;;;4.60;2.50;;;4.40;99.90;;;;;;5030197;28;20195;-49
2022/04/02 07:24:54;;;;;;;2.30;2.10;;;4.70;99.90;;;;;;5029368;28;20432;-49
2022/04/02 07:27:25;;;;;;;3.87;2.37;;;4.90;99.90;;;;;;5029265;28;20515;-50
2022/04/02 07:29:55;;;;;;;5.23;1.90;;;5.10;99.90;;;;;;5029226;28;20476;-54
2022/04/02 07:32:21;;;;;;;2.57;1.87;;;5.30;99.90;;;;;;5025487;28;20425;-49
2022/04/02 07:34:47;;;;;;;5.00;2.00;;;5.50;99.90;;;;;;5029038;28;20430;-49
2022/04/02 07:37:35;;;;;;;3.10;2.10;;;5.60;99.90;;;;;;5028971;28;20436;-49
2022/04/02 07:40:12;;;;;;;2.90;1.80;;;5.80;99.90;;;;;;5031960;28;20190;-46
2022/04/02 07:42:42;;;;;;;3.67;1.90;;;6.10;99.90;;;;;;5029188;28;20437;-47
2022/04/02 07:45:16;;;;;;;3.30;1.50;;;6.10;99.90;;;;;;5025178;28;20441;-46
2022/04/02 07:47:53;;;;;;;2.50;2.10;;;6.20;99.90;;;;;;5027982;28;20468;-46
2022/04/02 07:50:22;;;;;;;2.43;1.87;;;6.50;99.90;;;;;;5029088;28;20429;-46
2022/04/02 07:52:51;;;;;;;2.80;1.70;;;6.50;99.90;;;;;;5012155;28;20436;-47
2022/04/02 07:55:18;;;;;;;3.40;2.10;;;6.70;99.90;;;;;;5029142;28;20426;-46
2022/04/02 07:57:46;;;;;;;1.73;1.43;;;7.00;99.90;;;;;;5029041;28;20422;-47
2022/04/02 08:00:14;;;;;;;1.83;1.63;;;7.20;99.90;;;;;;5029316;28;20465;-47
2022/04/02 08:02:43;;;;;;;3.43;2.10;;;7.50;99.90;;;;;;5029323;28;20448;-46
2022/04/02 08:05:10;;;;;;;1.77;1.60;;;7.70;99.90;;;;;;5028768;28;20438;-47
2022/04/02 08:07:38;;;;;;;1.60;1.50;;;7.80;99.90;;;;;;5029858;28;20469;-47
2022/04/02 08:10:06;;;;;;;1.40;1.30;;;8.00;99.90;;;;;;5028736;28;20461;-47
2022/04/02 08:12:35;;;;;;;1.90;1.70;;;8.10;99.90;;;;;;5029050;28;20492;-47
2022/04/02 08:15:02;;;;;;;1.30;1.20;;;8.30;99.90;;;;;;5029606;28;20469;-47
2022/04/02 08:17:30;;;;;;;1.50;1.40;;;8.50;99.90;;;;;;5029117;28;20430;-47
2022/04/02 08:19:58;;;;;;;1.77;1.60;;;8.60;99.90;;;;;;5032559;28;20986;-47
2022/04/02 08:22:24;;;;;;;3.43;1.80;;;8.60;99.90;;;;;;5032854;28;20430;-46
2022/04/02 08:24:49;;;;;;;1.93;1.13;;;8.50;99.90;;;;;;5032590;28;20456;-46
2022/04/02 08:27:45;;;;;;;1.57;1.00;;;8.50;99.90;;;;;;5036018;28;20551;-47
2022/04/02 08:30:32;;;;;;;2.10;1.27;;;8.70;99.90;;;;;;5033287;28;20194;-51
2022/04/02 08:33:36;;;;;;;2.37;1.10;;;8.90;99.90;;;;;;5031482;28;20437;-52
2022/04/02 08:36:14;;;;;;;1.20;0.93;;;8.90;99.90;;;;;;5033645;28;20417;-47
2022/04/02 08:38:55;;;;;;;1.77;1.13;;;9.10;99.90;;;;;;5031718;28;20437;-47
2022/04/02 08:41:41;;;;;;;1.50;1.20;;;9.50;99.90;;;;;;5008808;28;20919;-46
2022/04/02 08:44:24;;;;;;;2.30;1.40;;;10.10;99.90;;;;;;5028215;28;20899;-47
2022/04/02 08:47:29;;;;;;;1.67;1.43;;;10.30;99.90;;;;;;5031735;28;20428;-47
2022/04/02 08:50:14;;;;;;;1.50;1.23;;;10.60;99.90;;;;;;5032115;28;20440;-52
2022/04/02 08:52:55;;;;;;;1.73;1.10;;;10.30;99.90;;;;;;5024904;28;20449;-47
2022/04/02 08:55:25;;;;;;;1.63;1.30;;;10.00;99.90;;;;;;5030373;28;20583;-47
2022/04/02 08:57:53;;;;;;;3.40;1.33;;;10.00;99.90;;;;;;5014614;28;20448;-47
2022/04/02 09:00:26;;;;;;;1.67;1.37;;;9.90;99.90;;;;;;5033549;28;20465;-47
2022/04/02 09:03:03;;;;;;;1.60;1.30;;;10.00;99.90;;;;;;5030725;28;20460;-47
2022/04/02 09:05:47;;;;;;;1.23;1.13;;;10.00;99.90;;;;;;5032849;28;20437;-47
2022/04/02 09:08:47;;;;;;;2.10;1.40;;;10.40;99.90;;;;;;5031166;28;20561;-47
2022/04/02 09:11:27;;;;;;;9.10;2.20;;;10.60;99.90;;;;;;5031129;28;20448;-47
2022/04/02 09:14:26;;;;;;;1.47;1.27;;;10.60;99.90;;;;;;5032542;28;20421;-47
2022/04/02 09:17:27;;;;;;;1.23;1.13;;;10.70;99.90;;;;;;5032220;28;20483;-47
2022/04/02 09:20:23;;;;;;;2.10;1.50;;;11.10;99.90;;;;;;5033093;28;20851;-47
2022/04/02 09:23:18;;;;;;;2.27;1.77;;;11.50;99.90;;;;;;5029395;28;20467;-47
2022/04/02 09:26:11;;;;;;;1.30;1.20;;;11.20;99.90;;;;;;5024662;28;20930;-47
2022/04/02 09:28:44;;;;;;;1.40;1.30;;;11.30;99.90;;;;;;5032027;28;20469;-47
2022/04/02 09:31:43;;;;;;;1.47;1.33;;;11.50;99.90;;;;;;5032847;28;20480;-46
2022/04/02 09:34:28;;;;;;;2.40;1.60;;;11.30;99.90;;;;;;5029992;28;20543;-46
2022/04/02 09:37:34;;;;;;;1.50;1.33;;;11.10;99.90;;;;;;5027704;28;20468;-46
2022/04/02 09:40:10;;;;;;;1.50;1.40;;;10.70;99.90;;;;;;5031727;28;20434;-45
2022/04/02 09:42:44;;;;;;;2.07;1.67;;;10.10;99.90;;;;;;5026915;28;20425;-46
2022/04/02 09:45:31;;;;;;;1.50;1.40;;;10.10;99.90;;;;;;5029817;28;20430;-45
2022/04/02 09:48:15;;;;;;;1.48;1.30;;;9.60;99.90;;;;;;5030328;28;20437;-46
2022/04/02 09:50:42;;;;;;;2.03;1.20;;;9.40;99.90;;;;;;5030631;28;20775;-46
2022/04/02 09:53:14;;;;;;;2.50;1.40;;;9.30;99.90;;;;;;5031176;28;20442;-46
2022/04/02 09:55:54;;;;;;;3.30;1.73;;;9.10;99.90;;;;;;5027036;28;20537;-46
2022/04/02 09:58:35;;;;;;;1.83;1.73;;;9.00;99.90;;;;;;5029284;28;20508;-46
2022/04/02 10:01:08;;;;;;;1.97;1.57;;;8.80;99.90;;;;;;5031451;28;20567;-46
2022/04/02 10:03:57;;;;;;;1.90;1.70;;;8.60;99.90;;;;;;5030639;28;20426;-46
2022/04/02 10:06:38;;;;;;;3.10;1.80;;;8.70;99.90;;;;;;5030462;28;20461;-45
2022/04/02 10:09:05;;;;;;;3.83;1.60;;;9.00;99.90;;;;;;5029760;28;20860;-46
2022/04/02 10:11:34;;;;;;;2.63;1.77;;;8.90;99.90;;;;;;5025348;28;20537;-46
2022/04/02 10:14:02;;;;;;;2.50;1.73;;;8.90;99.90;;;;;;5026934;28;20476;-46
2022/04/02 10:16:29;;;;;;;1.80;1.67;;;9.10;99.90;;;;;;5027642;28;20441;-46
2022/04/02 10:18:57;;;;;;;5.00;2.10;;;8.90;99.90;;;;;;5026783;28;20965;-46
2022/04/02 10:21:23;;;;;;;2.17;1.80;;;8.70;99.90;;;;;;5029688;28;20430;-47
2022/04/02 10:24:16;;;;;;;2.13;1.40;;;8.60;99.90;;;;;;5029510;28;20487;-46
2022/04/02 10:26:53;;;;;;;3.87;1.93;;;8.50;99.90;;;;;;5015767;28;20449;-46
2022/04/02 10:29:42;;;;;;;2.33;1.80;;;8.30;99.90;;;;;;5030535;28;20457;-46
2022/04/02 10:32:37;;;;;;;2.53;1.80;;;7.90;99.90;;;;;;5030550;28;20441;-47
2022/04/02 10:35:08;;;;;;;4.40;1.93;;;7.40;99.90;;;;;;5029503;28;20970;-46
2022/04/02 10:37:40;;;;;;;3.60;2.10;;;7.10;99.90;;;;;;5027679;28;20441;-46
2022/04/02 10:40:08;;;;;;;2.03;1.50;;;7.10;99.90;;;;;;5029469;28;20425;-46
2022/04/02 10:42:42;;;;;;;2.10;1.83;;;7.00;99.90;;;;;;5029194;28;20210;-46
2022/04/02 10:45:14;;;;;;;1.90;1.80;;;7.10;99.90;;;;;;5027636;28;20437;-46
2022/04/02 10:47:49;;;;;;;2.07;1.83;;;7.60;99.90;;;;;;5008674;28;20469;-46
2022/04/02 10:50:18;;;;;;;1.67;1.57;;;8.00;99.90;;;;;;5024223;28;20445;-46
2022/04/02 10:52:47;;;;;;;2.60;1.93;;;8.90;99.90;;;;;;5032457;28;20420;-46
2022/04/02 10:55:17;;;;;;;1.77;1.60;;;9.80;99.90;;;;;;5029882;28;20425;-47
2022/04/02 10:57:43;;;;;;;1.73;1.60;;;10.80;99.90;;;;;;5030328;28;20516;-46
2022/04/02 11:00:09;;;;;;;4.70;1.60;;;11.60;99.90;;;;;;5028548;28;20576;-46
2022/04/02 11:02:46;;;;;;;1.67;1.57;;;12.20;99.90;;;;;;5028657;28;20198;-46
2022/04/02 11:05:14;;;;;;;1.60;1.50;;;12.60;99.90;;;;;;5029753;28;20532;-46
2022/04/02 11:07:44;;;;;;;1.43;1.33;;;13.00;99.90;;;;;;5030234;28;20453;-46
2022/04/02 11:10:17;;;;;;;2.90;1.70;;;13.30;99.90;;;;;;5030550;28;20425;-46
2022/04/02 11:12:44;;;;;;;2.10;1.67;;;13.90;99.90;;;;;;5030102;28;20914;-47
2022/04/02 11:15:21;;;;;;;2.50;1.90;;;14.30;99.90;;;;;;5030711;28;20438;-47
2022/04/02 11:17:53;;;;;;;2.10;1.73;;;14.70;99.90;;;;;;5029793;28;20528;-46
2022/04/02 11:20:23;;;;;;;3.10;1.70;;;14.60;99.90;;;;;;5024458;28;20473;-46
2022/04/02 11:22:52;;;;;;;1.87;1.77;;;13.50;99.90;;;;;;5028090;28;20472;-47
2022/04/02 11:25:31;;;;;;;2.40;1.83;;;12.60;99.90;;;;;;5029851;28;20542;-46
2022/04/02 11:28:14;;;;;;;2.07;1.87;;;11.70;99.90;;;;;;5028520;28;20834;-46
2022/04/02 11:31:01;;;;;;;3.20;1.90;;;10.50;99.90;;;;;;5029715;28;20418;-46
2022/04/02 11:33:27;;;;;;;2.53;2.20;;;9.70;99.90;;;;;;5024361;28;20429;-46
2022/04/02 11:36:06;;;;;;;2.57;1.87;;;9.90;99.90;;;;;;5029406;28;20483;-46
2022/04/02 11:38:43;;;;;;;2.57;1.97;;;9.80;99.90;;;;;;5028960;28;20520;-46
2022/04/02 11:41:23;;;;;;;2.00;1.90;;;9.10;99.90;;;;;;5010907;28;20421;-46
2022/04/02 11:44:03;;;;;;;2.93;2.00;;;8.90;99.90;;;;;;5026766;28;20449;-46
2022/04/02 11:46:28;;;;;;;4.57;2.13;;;9.90;99.90;;;;;;5028839;28;20512;-46
2022/04/02 11:48:56;;;;;;;1.80;1.70;;;11.50;99.90;;;;;;5027427;28;20544;-46
2022/04/02 11:51:31;;;;;;;2.17;1.97;;;12.60;99.90;;;;;;5027636;28;20189;-46
2022/04/02 11:54:03;;;;;;;2.93;2.13;;;12.60;99.90;;;;;;5010227;28;20957;-53
2022/04/02 11:56:34;;;;;;;6.30;2.10;;;11.60;99.90;;;;;;5028360;28;20429;-46
2022/04/02 11:59:05;;;;;;;2.20;1.77;;;11.80;99.90;;;;;;5028183;28;20441;-46
2022/04/02 12:01:48;;;;;;;3.57;2.20;;;12.40;99.90;;;;;;5009987;28;20481;-46
2022/04/02 12:04:19;;;;;;;3.57;2.20;;;12.50;99.90;;;;;;5026745;28;20513;-47
2022/04/02 12:06:47;;;;;;;2.30;2.10;;;13.20;99.90;;;;;;5028641;28;20426;-46
2022/04/02 12:09:20;;;;;;;3.10;1.80;;;13.80;99.90;;;;;;5028280;28;20469;-46
2022/04/02 12:11:58;;;;;;;2.53;2.27;;;14.10;99.90;;;;;;5026294;28;20441;-47
2022/04/02 12:14:27;;;;;;;3.50;2.23;;;14.20;99.90;;;;;;5025651;28;20814;-47
2022/04/02 12:17:05;;;;;;;2.23;2.00;;;13.70;99.90;;;;;;5028236;28;20863;-46
2022/04/02 12:19:41;;;;;;;2.30;1.90;;;12.80;99.90;;;;;;5023401;28;20437;-46
2022/04/02 12:22:25;;;;;;;2.60;2.07;;;11.80;99.90;;;;;;5026651;28;20460;-46
2022/04/02 12:24:53;;;;;;;10.13;1.90;;;11.60;99.90;;;;;;5024734;28;20925;-47
2022/04/02 12:27:23;;;;;;;2.80;1.90;;;11.90;99.90;;;;;;5027006;28;20500;-46
2022/04/02 12:29:51;;;;;;;2.63;1.97;;;11.80;99.90;;;;;;5028912;28;20418;-46
2022/04/02 12:32:31;;;;;;;6.40;2.17;;;11.10;99.90;;;;;;5028904;28;20512;-46
2022/04/02 12:35:01;;;;;;;2.80;2.17;;;10.40;99.90;;;;;;5028557;28;20923;-46
2022/04/02 12:37:42;;;;;;;3.03;2.40;;;9.50;99.90;;;;;;5022645;28;20432;-46
2022/04/02 12:40:17;;;;;;;6.40;2.77;;;8.90;99.90;;;;;;5026363;28;20465;-46
2022/04/02 12:42:44;;;;;;;12.97;10.07;;;9.10;99.90;;;;;;5029781;28;20432;-47
2022/04/02 12:45:22;;;;;;;5.93;2.80;;;10.00;99.90;;;;;;5027465;28;20993;-46
2022/04/02 12:48:10;;;;;;;15.77;10.60;;;11.30;99.90;;;;;;5028434;28;20495;-46
2022/04/02 12:50:38;;;;;;;3.43;3.03;;;12.60;99.90;;;;;;5005027;28;20476;-46
2022/04/02 12:53:04;;;;;;;12.63;7.73;;;13.30;99.90;;;;;;5019529;28;20992;-46
2022/04/02 12:55:33;;;;;;;10.00;5.70;;;12.90;99.90;;;;;;5008929;28;20438;-46
2022/04/02 12:58:01;;;;;;;3.87;3.03;;;12.00;99.90;;;;;;5028987;28;20425;-46
2022/04/02 13:00:28;;;;;;;2.50;2.30;;;10.90;99.90;;;;;;5028784;28;20477;-46
2022/04/02 13:02:56;;;;;;;6.20;5.30;;;9.90;99.90;;;;;;5032427;28;20437;-46
2022/04/02 13:05:24;;;;;;;6.60;4.90;;;10.20;99.90;;;;;;5032292;28;20768;-47
2022/04/02 13:08:01;;;;;;;2.70;2.17;;;11.40;99.90;;;;;;5031108;28;20461;-46
2022/04/02 13:10:29;;;;;;;3.03;2.70;;;12.40;99.90;;;;;;5032692;28;20425;-54
2022/04/02 13:13:01;;;;;;;2.53;2.33;;;13.20;99.90;;;;;;5013948;28;20487;-47